Time;durP1;ratioP1;P1;durP2;ratioP2;P2;SDS_P1;SDS_P2;PMS_P1;PMS_P2;Temp;Humidity;BMP_temperature;BMP_pressure;BME280_temperature;BME280_humidity;BME280_pressure;Samples;Min_cycle;Max_cycle;Signal;HPM_P1;HPM_P2
2022/06/18 00:00:44;;;;;;;4.85;2.10;;;18.60;99.90;;;-141.84;53.19;19793.50;5032465;28;20227;-60
2022/06/18 00:03:13;;;;;;;7.18;2.47;;;18.60;99.90;;;-141.84;53.67;19811.81;5029764;28;20190;-60
2022/06/18 00:05:45;;;;;;;4.85;2.35;;;18.60;99.90;;;-141.84;53.54;19848.38;5032634;28;20678;-60
2022/06/18 00:08:20;;;;;;;5.72;2.60;;;18.60;99.90;;;-141.84;52.84;19807.75;5029661;28;20276;-61
2022/06/18 00:10:55;;;;;;;3.53;2.30;;;18.60;99.90;;;-141.84;52.57;19815.88;5032051;28;20227;-61
2022/06/18 00:13:40;;;;;;;3.88;1.90;;;18.60;99.90;;;-141.84;52.31;19826.03;5032158;28;20217;-61
2022/06/18 00:16:11;;;;;;;4.38;2.00;;;18.70;99.90;;;-141.84;51.78;19880.91;5031414;28;20236;-61
2022/06/18 00:18:40;;;;;;;5.18;2.10;;;18.80;99.90;;;-141.84;51.80;19846.34;5029214;28;20245;-61
2022/06/18 00:21:16;;;;;;;3.53;2.10;;;18.80;99.90;;;-141.84;50.95;19893.09;5031822;28;20209;-62
2022/06/18 00:23:44;;;;;;;3.38;2.00;;;18.90;99.90;;;-141.84;50.89;19887.00;5032241;28;20717;-62
2022/06/18 00:26:13;;;;;;;4.63;2.28;;;18.90;99.90;;;-141.84;51.46;19860.59;5028963;28;20218;-61
2022/06/18 00:28:44;;;;;;;4.78;2.00;;;18.90;99.90;;;-141.84;51.66;19862.63;5031771;28;20221;-61
2022/06/18 00:31:12;;;;;;;4.63;1.90;;;18.90;99.90;;;-141.84;50.92;19876.84;5031715;28;20222;-60
2022/06/18 00:33:40;;;;;;;2.95;2.10;;;18.90;99.90;;;-141.84;51.61;19870.75;5029322;28;20225;-60
2022/06/18 00:36:16;;;;;;;3.10;2.10;;;18.80;99.90;;;-141.84;51.90;19846.34;5031564;28;20214;-60
2022/06/18 00:38:48;;;;;;;3.78;1.92;;;18.80;99.90;;;-141.84;52.12;19838.22;5032166;28;20630;-62
2022/06/18 00:41:20;;;;;;;3.40;1.98;;;18.70;99.90;;;-141.84;52.25;19848.38;5028889;28;20652;-60
2022/06/18 00:43:56;;;;;;;2.75;1.83;;;18.70;99.90;;;-141.84;52.55;19817.91;5031440;28;20231;-62
2022/06/18 00:46:35;;;;;;;3.83;1.90;;;18.70;99.90;;;-141.84;51.82;19872.78;5031441;28;20218;-61
2022/06/18 00:49:14;;;;;;;5.00;1.95;;;18.70;99.90;;;-141.84;51.87;19858.56;5030067;28;20249;-60
2022/06/18 00:51:49;;;;;;;4.75;1.90;;;18.70;99.90;;;-141.84;52.40;19817.91;5028572;28;20721;-61
2022/06/18 00:54:25;;;;;;;2.97;1.70;;;18.60;99.90;;;-141.84;52.85;19797.59;5027058;28;20253;-61
2022/06/18 00:57:01;;;;;;;4.78;2.00;;;18.60;99.90;;;-141.84;53.16;19797.59;5029082;28;20184;-61
2022/06/18 00:59:40;;;;;;;4.90;2.00;;;18.50;99.90;;;-141.84;53.50;19805.72;5031456;28;20292;-61
2022/06/18 01:02:14;;;;;;;3.92;1.95;;;18.50;99.90;;;-141.84;52.75;19834.16;5031089;28;20249;-61
2022/06/18 01:04:44;;;;;;;3.88;1.90;;;18.40;99.90;;;-141.84;52.87;19805.72;5031128;28;20296;-61
2022/06/18 01:07:25;;;;;;;2.33;1.90;;;18.40;99.90;;;-141.84;53.11;19777.25;5030986;28;20228;-61
2022/06/18 01:09:54;;;;;;;4.07;1.90;;;18.40;99.90;;;-141.84;53.20;19811.81;5030965;28;20682;-61
2022/06/18 01:12:23;;;;;;;2.40;1.70;;;18.40;99.90;;;-141.84;53.93;19740.69;5031098;28;20317;-61
2022/06/18 01:15:01;;;;;;;3.55;2.00;;;18.30;99.90;;;-141.84;53.45;19765.06;5031274;28;20744;-60
2022/06/18 01:17:33;;;;;;;2.58;1.80;;;18.30;99.90;;;-141.84;53.87;19765.06;5011296;28;20213;-61
2022/06/18 01:20:06;;;;;;;4.15;2.00;;;18.30;99.90;;;-141.84;53.70;19793.50;5009428;28;20301;-61
2022/06/18 01:22:48;;;;;;;5.88;1.70;;;18.30;99.90;;;-141.84;53.63;19771.16;5008485;28;20682;-63
2022/06/18 01:25:17;;;;;;;3.80;1.80;;;18.30;99.90;;;-141.84;54.64;19750.84;5002306;28;20302;-61
2022/06/18 01:27:45;;;;;;;3.35;1.83;;;18.20;99.90;;;-141.84;53.66;19789.44;5001905;28;20302;-61
2022/06/18 01:30:20;;;;;;;2.40;1.80;;;18.30;99.90;;;-141.84;54.29;19787.41;5002336;28;20207;-61
2022/06/18 01:32:54;;;;;;;3.13;1.75;;;18.20;99.90;;;-141.84;54.24;19777.25;5031218;28;20221;-61
2022/06/18 01:35:23;;;;;;;2.90;2.10;;;18.20;99.90;;;-141.84;54.31;19736.59;5030343;28;20754;-61
2022/06/18 01:37:52;;;;;;;2.33;1.63;;;18.20;99.90;;;-141.84;54.74;19775.22;5030541;28;20225;-61
2022/06/18 01:40:32;;;;;;;2.95;1.80;;;18.20;99.90;;;-141.84;53.92;19791.47;5030771;28;20314;-60
2022/06/18 01:43:04;;;;;;;2.35;1.77;;;18.20;99.90;;;-141.84;54.41;19779.28;5028407;28;20598;-61
2022/06/18 01:45:37;;;;;;;2.70;1.98;;;18.20;99.90;;;-141.84;54.40;19777.25;5030806;28;20336;-61
2022/06/18 01:48:16;;;;;;;3.33;1.73;;;18.20;99.90;;;-141.84;54.22;19758.97;5030527;28;20183;-61
2022/06/18 01:50:51;;;;;;;6.25;1.95;;;18.20;99.90;;;-141.84;54.48;19740.69;5029729;28;20708;-60
2022/06/18 01:53:27;;;;;;;4.10;1.90;;;18.20;99.90;;;-141.84;54.76;19732.53;5028459;28;20300;-60
2022/06/18 01:56:02;;;;;;;3.05;1.88;;;18.20;99.90;;;-141.84;54.09;19736.59;5030285;28;20221;-62
2022/06/18 01:58:38;;;;;;;3.20;1.80;;;18.10;99.90;;;-141.84;53.94;19752.88;5030236;28;20312;-61
2022/06/18 02:01:18;;;;;;;4.45;2.10;;;18.10;99.90;;;-141.84;54.38;19724.41;5030304;28;20649;-61
2022/06/18 02:03:47;;;;;;;5.38;2.05;;;18.10;99.90;;;-141.84;54.24;19716.28;5029091;28;20221;-61
2022/06/18 02:06:15;;;;;;;4.00;2.08;;;18.10;99.90;;;-141.84;54.88;19702.06;5027854;28;20208;-61
2022/06/18 02:08:43;;;;;;;3.78;1.98;;;18.00;99.90;;;-141.84;55.47;19695.97;5030710;28;20200;-60
2022/06/18 02:11:18;;;;;;;3.15;1.95;;;18.00;99.90;;;-141.84;55.19;19695.97;5031256;28;20214;-61
2022/06/18 02:13:53;;;;;;;4.85;2.13;;;17.90;99.90;;;-141.84;54.36;19716.28;5030166;28;20728;-60
2022/06/18 02:16:26;;;;;;;4.65;1.80;;;18.00;99.90;;;-141.84;54.31;19730.50;5028387;28;20224;-60
2022/06/18 02:18:55;;;;;;;2.42;1.80;;;18.00;99.90;;;-141.84;53.79;19756.94;5022464;28;20221;-61
2022/06/18 02:21:26;;;;;;;2.35;1.85;;;18.00;99.90;;;-141.84;53.32;19775.22;5030214;28;20638;-60
2022/06/18 02:23:55;;;;;;;5.20;1.95;;;18.00;99.90;;;-141.84;53.45;19777.25;5030207;28;20195;-61
2022/06/18 02:26:29;;;;;;;3.42;2.10;;;18.00;99.90;;;-141.84;53.74;19726.44;5020919;28;20211;-61
2022/06/18 02:29:00;;;;;;;3.28;2.00;;;18.10;99.90;;;-141.84;53.27;19767.09;5009754;28;20305;-60
2022/06/18 02:31:36;;;;;;;3.10;1.60;;;18.10;99.90;;;-141.84;54.04;19758.97;5010380;28;20682;-61
2022/06/18 02:34:11;;;;;;;2.88;1.70;;;18.10;99.90;;;-141.84;54.01;19693.94;5008836;28;20241;-59
2022/06/18 02:36:41;;;;;;;2.05;1.58;;;18.00;99.90;;;-141.84;53.84;19740.69;5008143;28;20757;-61
2022/06/18 02:39:23;;;;;;;1.88;1.70;;;18.00;99.90;;;-141.84;53.77;19740.69;5010355;28;20214;-61
2022/06/18 02:42:02;;;;;;;3.92;1.77;;;18.00;99.90;;;-141.84;53.79;19716.28;5010874;28;20209;-61
2022/06/18 02:44:31;;;;;;;3.40;1.92;;;18.00;99.90;;;-141.84;53.51;19720.34;5030248;28;20589;-61
2022/06/18 02:47:05;;;;;;;1.90;1.63;;;18.00;99.90;;;-141.84;54.31;19695.97;5029987;28;20266;-61
2022/06/18 02:49:36;;;;;;;4.72;1.73;;;17.90;99.90;;;-141.84;54.72;19724.41;5029637;28;20228;-60
2022/06/18 02:52:06;;;;;;;1.95;1.83;;;17.90;99.90;;;-141.84;54.55;19704.09;5029956;28;20225;-61
2022/06/18 02:54:35;;;;;;;5.53;1.70;;;17.90;99.90;;;-141.84;54.71;19708.16;5027001;28;20270;-61
2022/06/18 02:57:18;;;;;;;3.03;1.98;;;17.80;99.90;;;-141.84;54.65;19736.59;5029882;28;20215;-61
2022/06/18 02:59:46;;;;;;;2.83;1.70;;;17.80;99.90;;;-141.84;54.70;19722.38;5029416;28;20190;-60
2022/06/18 03:02:14;;;;;;;5.18;2.20;;;17.80;99.90;;;-141.84;54.99;19661.41;5029691;28;20287;-62
2022/06/18 03:04:43;;;;;;;3.90;2.00;;;17.80;99.90;;;-141.84;55.19;19683.78;5029523;28;20562;-62
2022/06/18 03:07:11;;;;;;;4.28;2.20;;;17.70;99.90;;;-141.84;53.62;19734.56;5029684;28;20218;-60
2022/06/18 03:12:22;;;;;;;2.70;1.65;;;17.90;99.90;;;-141.84;54.87;19706.13;5029602;28;20225;-60
2022/06/18 03:14:50;;;;;;;3.78;2.30;;;17.80;99.90;;;-141.84;54.39;19702.06;5031658;28;20629;-61
2022/06/18 03:17:19;;;;;;;6.85;1.98;;;17.90;99.90;;;-141.84;54.15;19708.16;5032688;28;20226;-61
2022/06/18 03:19:55;;;;;;;2.25;1.90;;;17.90;99.90;;;-141.84;54.40;19726.44;5033084;28;20237;-62
2022/06/18 03:22:24;;;;;;;4.57;1.98;;;17.90;99.90;;;-141.84;54.36;19718.31;5029525;28;20305;-61
2022/06/18 03:24:52;;;;;;;3.40;1.90;;;17.90;99.90;;;-141.84;54.58;19695.97;5033036;28;20228;-61
2022/06/18 03:27:21;;;;;;;2.88;1.85;;;17.90;99.90;;;-141.84;54.50;19722.38;5032830;28;20753;-60
2022/06/18 03:29:52;;;;;;;3.58;1.80;;;17.90;99.90;;;-141.84;54.10;19700.03;5033534;28;20316;-61
2022/06/18 03:32:20;;;;;;;4.38;1.75;;;18.00;99.90;;;-141.84;53.29;19738.66;5030787;28;20284;-61
2022/06/18 03:34:48;;;;;;;3.67;2.08;;;18.00;99.90;;;-141.84;53.78;19730.50;5032682;28;20301;-61
2022/06/18 03:37:16;;;;;;;3.30;3.00;;;18.10;99.90;;;-141.84;54.24;19706.13;5030188;28;20233;-61
2022/06/18 03:39:45;;;;;;;2.10;1.90;;;18.10;99.90;;;-141.84;53.49;19765.06;5032599;28;20225;-60
2022/06/18 03:42:13;;;;;;;3.00;1.83;;;18.10;99.90;;;-141.84;52.87;19799.63;5032209;28;20646;-60
2022/06/18 03:44:42;;;;;;;2.63;1.83;;;18.20;99.90;;;-141.84;53.13;19740.69;5032873;28;20226;-61
2022/06/18 03:47:10;;;;;;;3.50;1.65;;;18.20;99.90;;;-141.84;52.40;19781.31;5032377;28;20221;-61
2022/06/18 03:49:39;;;;;;;3.78;1.88;;;18.30;99.90;;;-141.84;53.27;19748.81;5032276;28;20220;-61
2022/06/18 03:52:10;;;;;;;4.53;2.00;;;18.30;99.90;;;-141.84;53.11;19777.25;5032743;28;20312;-60
2022/06/18 03:54:38;;;;;;;4.28;1.80;;;18.30;99.90;;;-141.84;53.09;19777.25;5030163;28;20226;-61
2022/06/18 03:57:06;;;;;;;3.15;2.05;;;18.30;99.90;;;-141.84;53.55;19811.81;5032511;28;20224;-61
2022/06/18 03:59:35;;;;;;;2.58;1.83;;;18.30;99.90;;;-141.84;53.79;19752.88;5032951;28;20281;-61
2022/06/18 04:02:04;;;;;;;3.42;1.55;;;18.20;99.90;;;-141.84;53.40;19750.84;5032523;28;20877;-61
2022/06/18 04:04:33;;;;;;;1.98;1.45;;;18.30;99.90;;;-141.84;52.68;19777.25;5032225;28;20222;-61
2022/06/18 04:07:01;;;;;;;3.53;1.90;;;18.30;99.90;;;-141.84;52.62;19797.59;5032377;28;20232;-61
2022/06/18 04:09:30;;;;;;;3.05;2.05;;;18.30;99.90;;;-141.84;52.89;19752.88;5032039;28;20218;-61
2022/06/18 04:11:59;;;;;;;1.83;1.60;;;18.40;99.90;;;-141.84;52.63;19785.38;5030744;28;20204;-61
2022/06/18 04:14:27;;;;;;;3.83;1.90;;;18.40;99.90;;;-141.84;52.36;19789.44;5032649;28;20194;-61
2022/06/18 04:16:55;;;;;;;1.85;1.45;;;18.50;99.90;;;-141.84;52.42;19791.47;5031849;28;20224;-61
2022/06/18 04:19:24;;;;;;;2.20;1.90;;;18.50;99.90;;;-141.84;52.28;19797.59;5031249;28;20225;-61
2022/06/18 04:21:52;;;;;;;3.65;1.95;;;18.50;99.90;;;-141.84;51.86;19789.44;5032063;28;20248;-61
2022/06/18 04:24:20;;;;;;;2.95;1.90;;;18.50;99.90;;;-141.84;51.79;19809.78;5031740;28;20599;-61
2022/06/18 04:26:49;;;;;;;3.13;1.58;;;18.50;99.90;;;-141.84;51.96;19797.59;5032158;28;20186;-61
2022/06/18 04:29:17;;;;;;;3.47;1.80;;;18.60;99.90;;;-141.84;51.37;19864.66;5029053;28;20221;-61
2022/06/18 04:31:45;;;;;;;1.90;1.70;;;18.70;99.90;;;-141.84;51.00;19834.16;5031740;28;20305;-61
2022/06/18 04:34:13;;;;;;;1.80;1.70;;;18.70;99.90;;;-141.84;50.57;19882.94;5031434;28;20237;-60
2022/06/18 04:36:43;;;;;;;2.78;1.60;;;18.80;99.90;;;-141.84;50.40;19891.06;5031865;28;20218;-61
2022/06/18 04:39:12;;;;;;;2.83;1.70;;;18.90;99.90;;;-141.84;49.83;19911.41;5031672;28;20214;-61
2022/06/18 04:41:45;;;;;;;3.83;1.67;;;19.00;99.90;;;-141.84;49.30;19943.91;5031714;28;20261;-62
2022/06/18 04:44:14;;;;;;;1.55;1.40;;;19.10;99.90;;;-141.84;49.44;19931.72;5031327;28;20237;-60
2022/06/18 04:46:42;;;;;;;2.38;1.60;;;19.20;99.90;;;-141.84;48.86;19966.28;5031532;28;20225;-61
2022/06/18 04:49:13;;;;;;;2.97;1.50;;;19.30;99.90;;;-141.84;46.83;20078.06;5031119;28;20272;-61
2022/06/18 04:51:42;;;;;;;3.75;1.90;;;19.60;99.90;;;-141.84;42.39;20372.78;5031269;28;20257;-61
2022/06/18 04:54:10;;;;;;;2.25;1.70;;;20.50;99.90;;;-141.84;39.77;20637.03;5031476;28;20205;-61
2022/06/18 04:56:39;;;;;;;2.05;1.75;;;21.70;99.90;;;-141.84;35.86;21037.50;5029333;28;20221;-62
2022/06/18 04:59:07;;;;;;;4.03;1.95;;;23.10;99.90;;;-141.84;34.13;21305.88;5031298;28;20225;-60
2022/06/18 05:01:35;;;;;;;2.85;1.80;;;24.20;99.90;;;-141.84;32.65;21482.75;5031126;28;20223;-62
2022/06/18 05:04:04;;;;;;;3.42;1.63;;;24.80;99.90;;;-141.84;31.59;21645.44;5030950;28;20672;-61
2022/06/18 05:06:33;;;;;;;3.33;1.55;;;25.60;99.90;;;-141.84;30.54;21810.13;5029464;28;20225;-62
2022/06/18 05:09:02;;;;;;;2.33;1.50;;;25.90;99.90;;;-141.84;30.13;21834.53;5031589;28;20210;-63
2022/06/18 05:11:30;;;;;;;2.70;2.00;;;26.40;99.90;;;-141.84;30.16;21832.50;5032071;28;20297;-62
2022/06/18 05:13:58;;;;;;;5.47;1.80;;;26.40;99.90;;;-141.84;29.55;21976.88;5028255;28;20233;-61
2022/06/18 05:16:27;;;;;;;2.28;1.80;;;26.60;99.90;;;-141.84;29.54;22048.03;5031410;28;20308;-61
2022/06/18 05:18:55;;;;;;;3.58;1.90;;;26.70;99.90;;;-141.84;29.38;22001.28;5028497;28;20217;-62
2022/06/18 05:21:23;;;;;;;1.45;1.35;;;27.20;99.90;;;-141.84;29.70;21985.00;5031481;28;20226;-62
2022/06/18 05:23:51;;;;;;;2.00;1.60;;;27.30;99.90;;;-141.84;29.75;21934.16;5029306;28;20621;-62
2022/06/18 05:26:21;;;;;;;2.22;1.60;;;27.00;99.90;;;-141.84;29.46;22039.91;5028816;28;20305;-62
2022/06/18 05:28:49;;;;;;;3.33;1.52;;;27.00;99.90;;;-141.84;29.63;22013.47;5031482;28;20245;-61
2022/06/18 05:31:17;;;;;;;2.97;1.60;;;27.40;99.90;;;-141.84;30.48;21858.94;5028514;28;20776;-62
2022/06/18 05:33:45;;;;;;;1.63;1.50;;;27.00;99.90;;;-141.84;29.93;21846.72;5031322;28;20230;-62
2022/06/18 05:36:19;;;;;;;2.65;1.50;;;26.80;99.90;;;-141.84;30.49;21802.00;5030976;28;20204;-62
2022/06/18 05:38:49;;;;;;;2.30;1.77;;;27.10;99.90;;;-141.84;30.96;21708.47;5031772;28;20202;-62
2022/06/18 05:41:17;;;;;;;3.30;1.88;;;26.80;99.90;;;-141.84;32.20;21519.34;5030680;28;20222;-62
2022/06/18 05:43:47;;;;;;;2.80;1.90;;;26.20;99.90;;;-141.84;32.94;21338.41;5030975;28;20218;-62
2022/06/18 05:46:15;;;;;;;3.67;1.90;;;25.80;99.90;;;-141.84;34.17;21187.97;5030801;28;20698;-63
2022/06/18 05:48:43;;;;;;;3.17;1.80;;;25.30;99.90;;;-141.84;35.57;21031.41;5030966;28;20305;-61
2022/06/18 05:51:12;;;;;;;3.53;1.83;;;24.70;99.90;;;-141.84;36.03;20944.00;5030828;28;20233;-62
2022/06/18 05:53:40;;;;;;;3.13;1.80;;;24.60;99.90;;;-141.84;36.49;20883.00;5028313;28;20194;-61
2022/06/18 05:56:10;;;;;;;3.47;1.88;;;24.30;99.90;;;-141.84;36.90;20834.22;5029581;28;20226;-61
2022/06/18 05:58:38;;;;;;;4.68;1.95;;;24.20;99.90;;;-141.84;36.95;20826.09;5028379;28;20229;-61
2022/06/18 06:01:09;;;;;;;1.83;1.73;;;24.20;99.90;;;-141.84;37.44;20809.81;5030989;28;20228;-60
2022/06/18 06:03:37;;;;;;;3.53;1.60;;;24.20;99.90;;;-141.84;37.67;20761.03;5026078;28;20218;-61
2022/06/18 06:06:06;;;;;;;3.25;2.00;;;24.10;99.90;;;-141.84;37.76;20783.41;5030262;28;20680;-61
2022/06/18 06:08:34;;;;;;;2.47;1.70;;;24.20;99.90;;;-141.84;37.46;20820.00;5031161;28;20186;-63
2022/06/18 06:13:48;;;;;;;2.10;1.60;;;24.20;99.90;;;-141.84;37.89;20817.94;5029765;28;20217;-62
2022/06/18 06:16:20;;;;;;;3.08;1.73;;;24.20;99.90;;;-141.84;37.69;20838.28;5030877;28;20214;-61
2022/06/18 06:18:49;;;;;;;2.25;1.80;;;24.30;99.90;;;-141.84;37.26;20848.44;5028019;28;20264;-62
2022/06/18 06:21:18;;;;;;;2.38;1.70;;;24.40;99.90;;;-141.84;37.45;20844.38;5028148;28;20309;-61
2022/06/18 06:23:46;;;;;;;3.33;1.60;;;24.50;99.90;;;-141.84;37.57;20891.13;5031176;28;20202;-61
2022/06/18 06:26:20;;;;;;;4.32;1.85;;;24.70;99.90;;;-141.84;37.20;20880.97;5029948;28;20216;-62
2022/06/18 06:28:49;;;;;;;2.03;1.55;;;24.80;99.90;;;-141.84;37.67;20895.19;5030871;28;20217;-62
2022/06/18 06:31:19;;;;;;;3.22;1.67;;;24.80;99.90;;;-141.84;37.32;20915.53;5030466;28;20213;-62
2022/06/18 06:33:47;;;;;;;1.50;1.40;;;24.80;99.90;;;-141.84;36.76;20927.72;5030252;28;20828;-61
2022/06/18 06:36:17;;;;;;;3.25;1.67;;;24.90;99.90;;;-141.84;36.79;20923.66;5030709;28;20237;-62
2022/06/18 06:38:45;;;;;;;2.97;1.90;;;25.00;99.90;;;-141.84;36.73;20958.22;5031330;28;20241;-61
2022/06/18 06:41:19;;;;;;;2.33;1.63;;;25.10;99.90;;;-141.84;36.49;20978.56;5030069;28;20226;-61
2022/06/18 06:43:47;;;;;;;3.13;1.77;;;25.20;99.90;;;-141.84;36.26;20980.59;5030422;28;20233;-60
2022/06/18 06:46:18;;;;;;;3.42;2.22;;;25.20;99.90;;;-141.84;36.67;20964.31;5030093;28;20222;-61
2022/06/18 06:48:46;;;;;;;2.85;1.70;;;25.30;99.90;;;-141.84;36.83;20964.31;5032271;28;20222;-62
2022/06/18 06:51:18;;;;;;;2.63;1.63;;;25.40;99.90;;;-141.84;36.33;21011.09;5034312;28;20532;-62
2022/06/18 06:53:47;;;;;;;2.83;1.70;;;25.50;99.90;;;-141.84;35.77;21076.13;5034048;28;20182;-62
2022/06/18 06:59:08;;;;;;;4.13;2.05;;;25.70;99.90;;;-141.84;36.14;21080.19;5031442;28;20222;-60
2022/06/18 07:01:38;;;;;;;4.80;1.98;;;25.80;99.90;;;-141.84;35.44;21108.66;5032983;28;20225;-60
2022/06/18 07:04:10;;;;;;;2.15;1.55;;;25.90;99.90;;;-141.84;35.27;21110.69;5033013;28;20232;-63
2022/06/18 07:06:39;;;;;;;3.03;1.80;;;26.00;99.90;;;-141.84;35.03;21118.84;5028123;28;20225;-62
2022/06/18 07:11:43;;;;;;;1.92;1.65;;;26.00;99.90;;;-141.84;35.19;21098.50;5875063;22;20220;-62
2022/06/18 07:14:11;;;;;;;1.90;1.67;;;26.20;99.90;;;-141.84;34.59;21179.81;5066239;28;20196;-61
2022/06/18 07:16:50;;;;;;;3.83;1.80;;;26.30;99.90;;;-141.84;34.20;21240.81;5061805;28;20225;-60
2022/06/18 07:19:19;;;;;;;2.33;1.65;;;26.40;99.90;;;-141.84;33.93;21255.03;5063978;28;20247;-62
2022/06/18 07:21:51;;;;;;;5.43;2.08;;;26.50;99.90;;;-141.84;33.45;21244.88;5062166;28;20688;-61
2022/06/18 07:24:21;;;;;;;1.70;1.60;;;26.60;99.90;;;-141.84;33.17;21263.19;5065965;28;20282;-60
2022/06/18 07:26:49;;;;;;;1.58;1.45;;;26.60;99.90;;;-141.84;33.57;21281.47;5063431;28;20193;-62
2022/06/18 07:29:20;;;;;;;3.78;1.60;;;26.70;99.90;;;-141.84;32.85;21297.75;5061662;28;20245;-59
2022/06/18 07:31:51;;;;;;;1.58;1.42;;;26.80;99.90;;;-141.84;32.82;21314.00;5051136;28;20340;-61
2022/06/18 07:34:19;;;;;;;1.83;1.50;;;26.80;99.90;;;-141.84;32.53;21326.22;5065516;28;20311;-62
2022/06/18 07:36:48;;;;;;;1.65;1.50;;;26.90;99.90;;;-141.84;32.51;21330.28;5062271;28;20256;-60
2022/06/18 07:39:16;;;;;;;3.55;1.67;;;26.90;99.90;;;-141.84;32.81;21332.31;5063031;28;20768;-61
2022/06/18 07:41:52;;;;;;;4.22;1.70;;;26.90;99.90;;;-141.84;32.48;21358.75;5061576;28;20315;-60
2022/06/18 07:44:21;;;;;;;1.63;1.30;;;26.90;99.90;;;-141.84;32.32;21391.28;5062042;28;20276;-60
2022/06/18 07:46:52;;;;;;;2.75;1.50;;;27.00;99.90;;;-141.84;32.30;21413.63;5062938;28;20303;-60
2022/06/18 07:49:20;;;;;;;2.75;1.60;;;27.10;99.90;;;-141.84;32.40;21407.53;5063384;28;20222;-60
2022/06/18 07:51:49;;;;;;;2.85;1.60;;;27.10;99.90;;;-141.84;32.27;21370.94;5061609;28;20240;-61
2022/06/18 07:54:19;;;;;;;2.15;1.50;;;27.10;99.90;;;-141.84;32.53;21362.81;5063294;28;20221;-61
2022/06/18 07:56:48;;;;;;;1.73;1.45;;;27.10;99.90;;;-141.84;32.30;21419.72;5061466;28;20291;-61
2022/06/18 07:59:16;;;;;;;2.40;1.60;;;27.20;99.90;;;-141.84;32.46;21387.19;5063378;28;20531;-60
2022/06/18 08:01:44;;;;;;;4.10;1.63;;;27.30;99.90;;;-141.84;32.80;21403.47;5061059;28;20724;-61
2022/06/18 08:04:14;;;;;;;2.25;1.48;;;27.30;99.90;;;-141.84;32.41;21423.81;5063121;28;20303;-60
2022/06/18 08:06:43;;;;;;;1.98;1.77;;;27.40;99.90;;;-141.84;31.98;21482.75;5061018;28;20241;-60
2022/06/18 08:09:11;;;;;;;2.10;1.70;;;27.40;99.90;;;-141.84;31.90;21472.59;5052830;28;20728;-60
2022/06/18 08:11:40;;;;;;;3.72;1.35;;;27.50;99.90;;;-141.84;32.05;21436.00;5051423;28;20285;-62
2022/06/18 08:14:08;;;;;;;3.10;1.63;;;27.50;99.90;;;-141.84;32.42;21476.66;5053281;28;20271;-59
2022/06/18 08:16:38;;;;;;;2.28;1.73;;;27.50;99.90;;;-141.84;32.26;21436.00;5056593;28;20247;-59
2022/06/18 08:19:06;;;;;;;3.70;1.70;;;27.50;99.90;;;-141.84;32.30;21494.97;5063563;28;20756;-60
2022/06/18 08:21:41;;;;;;;1.83;1.60;;;27.50;99.90;;;-141.84;32.08;21480.72;5062654;28;20225;-59
2022/06/18 08:24:16;;;;;;;1.88;1.50;;;27.70;99.90;;;-141.84;32.25;21466.50;5064652;28;20311;-59
2022/06/18 08:26:47;;;;;;;2.38;1.67;;;27.60;99.90;;;-141.84;31.98;21494.97;5071401;28;20279;-61
2022/06/18 08:29:21;;;;;;;2.75;1.60;;;27.70;99.90;;;-141.84;32.15;21505.13;5072959;28;20181;-60
2022/06/18 08:31:49;;;;;;;3.83;1.70;;;27.80;99.90;;;-141.84;31.95;21519.34;5072297;28;20235;-60
2022/06/18 08:34:17;;;;;;;1.85;1.75;;;27.80;99.90;;;-141.84;32.18;21503.09;5072040;28;20353;-60
2022/06/18 08:36:54;;;;;;;3.15;1.60;;;27.90;99.90;;;-141.84;32.15;21539.69;5053875;28;20246;-59
2022/06/18 08:39:22;;;;;;;1.77;1.60;;;28.10;99.90;;;-141.84;31.83;21545.78;5063011;28;20315;-62
2022/06/18 08:42:06;;;;;;;1.70;1.60;;;28.20;99.90;;;-141.84;32.07;21551.91;5071509;28;20664;-60
2022/06/18 08:44:53;;;;;;;4.35;1.95;;;28.10;99.90;;;-141.84;32.49;21547.81;5072151;28;20239;-60
2022/06/18 08:47:53;;;;;;;2.53;1.55;;;28.10;99.90;;;-141.84;32.15;21582.38;5072304;28;20211;-60
2022/06/18 08:50:47;;;;;;;1.85;1.75;;;28.20;99.90;;;-141.84;32.15;21578.31;5068792;28;20220;-60
2022/06/18 08:53:51;;;;;;;2.05;1.95;;;28.20;99.90;;;-141.84;32.14;21643.38;5071623;28;20262;-60
2022/06/18 08:56:29;;;;;;;4.03;1.77;;;28.30;99.90;;;-141.84;31.77;21602.72;5052050;28;20284;-61
2022/06/18 08:59:21;;;;;;;2.20;1.50;;;28.40;99.90;;;-141.84;32.15;21631.19;5051728;28;20252;-59
2022/06/18 09:01:58;;;;;;;2.58;1.95;;;28.40;99.90;;;-141.84;32.19;21551.91;5051021;28;20225;-61
2022/06/18 09:04:49;;;;;;;1.80;1.70;;;28.40;99.90;;;-141.84;32.35;21588.50;5051166;28;20229;-60
2022/06/18 09:07:52;;;;;;;2.13;1.92;;;28.30;99.90;;;-141.84;32.24;21641.34;5050641;28;20577;-61
2022/06/18 09:10:34;;;;;;;3.28;1.75;;;28.50;99.90;;;-141.84;32.12;21623.06;5054504;28;20224;-60
2022/06/18 09:13:09;;;;;;;1.70;1.60;;;28.50;99.90;;;-141.84;32.35;21596.63;5049658;28;20232;-60
2022/06/18 09:15:49;;;;;;;3.42;1.80;;;28.50;99.90;;;-141.84;32.51;21590.53;5050709;28;20306;-60
2022/06/18 09:18:26;;;;;;;2.67;1.80;;;28.50;99.90;;;-141.84;32.48;21645.44;5050775;28;20707;-60
2022/06/18 09:21:05;;;;;;;6.82;1.80;;;28.70;99.90;;;-141.84;32.08;21690.16;5054138;28;20225;-61
2022/06/18 09:23:43;;;;;;;4.13;1.90;;;28.80;99.90;;;-141.84;31.75;21680.00;5056906;28;20207;-59
2022/06/18 09:26:24;;;;;;;2.33;1.98;;;28.90;99.90;;;-141.84;32.21;21716.59;5050769;28;20660;-59
2022/06/18 09:29:02;;;;;;;3.38;1.90;;;29.10;99.90;;;-141.84;32.17;21702.34;5050528;28;20225;-60
2022/06/18 09:31:38;;;;;;;2.05;1.85;;;29.20;99.90;;;-141.84;32.01;21726.75;5050829;28;20303;-59
2022/06/18 09:34:15;;;;;;;2.05;1.80;;;29.30;99.90;;;-141.84;31.78;21751.16;5050463;28;20223;-61
2022/06/18 09:36:49;;;;;;;2.35;2.03;;;29.30;99.90;;;-141.84;32.18;21684.06;5050176;28;20311;-59
2022/06/18 09:39:24;;;;;;;2.70;2.10;;;29.20;99.90;;;-141.84;32.27;21761.31;5050220;28;20315;-62
2022/06/18 09:42:03;;;;;;;6.03;2.20;;;29.20;99.90;;;-141.84;32.34;21724.72;5050349;28;20275;-61
2022/06/18 09:44:42;;;;;;;3.30;2.00;;;29.30;99.90;;;-141.84;32.12;21785.72;5050962;28;20199;-60
2022/06/18 09:47:17;;;;;;;2.97;2.15;;;29.30;99.90;;;-141.84;32.25;21728.78;5050932;28;20207;-60
2022/06/18 09:49:47;;;;;;;3.67;2.50;;;29.40;99.90;;;-141.84;32.90;21779.63;5050390;28;20252;-60
2022/06/18 09:52:25;;;;;;;5.68;2.30;;;29.40;99.90;;;-141.84;31.94;21812.16;5050056;28;20233;-59
2022/06/18 09:54:59;;;;;;;5.18;2.33;;;29.50;99.90;;;-141.84;32.71;21751.16;5061369;28;20339;-61
2022/06/18 09:57:36;;;;;;;3.10;2.47;;;29.50;99.90;;;-141.84;31.92;21834.53;5070509;28;20307;-59
2022/06/18 10:00:09;;;;;;;2.60;2.30;;;29.60;99.90;;;-141.84;32.05;21834.53;5070692;28;20721;-63
2022/06/18 10:02:46;;;;;;;3.95;2.30;;;29.70;99.90;;;-141.84;32.26;21824.34;5070259;28;20187;-59
2022/06/18 10:08:10;;;;;;;4.63;2.50;;;29.80;99.90;;;-141.84;32.06;21826.41;5070181;28;20279;-60
2022/06/18 10:10:45;;;;;;;3.80;2.70;;;29.90;99.90;;;-141.84;32.27;21832.50;5069554;28;20217;-60
2022/06/18 10:13:28;;;;;;;3.28;2.45;;;29.80;99.90;;;-141.84;32.29;21834.53;5070044;28;20306;-61
2022/06/18 10:16:08;;;;;;;4.07;2.40;;;29.90;99.90;;;-141.84;32.20;21799.97;5070314;28;20248;-60
2022/06/18 10:18:50;;;;;;;6.63;2.28;;;29.80;99.90;;;-141.84;32.40;21799.97;5070222;28;20232;-62
2022/06/18 10:21:32;;;;;;;4.70;2.60;;;29.80;99.90;;;-141.84;32.39;21830.47;5070286;28;20294;-62
2022/06/18 10:24:09;;;;;;;3.55;2.47;;;29.90;99.90;;;-141.84;32.12;21858.94;5072720;28;20224;-62
2022/06/18 10:26:49;;;;;;;7.20;2.72;;;29.90;99.90;;;-141.84;31.64;21913.84;5073994;28;20279;-61
2022/06/18 10:29:33;;;;;;;4.57;2.75;;;30.10;99.90;;;-141.84;31.54;21860.97;5074999;28;20181;-63
2022/06/18 10:32:22;;;;;;;4.45;2.60;;;30.00;99.90;;;-141.84;31.06;21891.47;5074295;28;20221;-62
2022/06/18 10:35:25;;;;;;;6.55;2.53;;;30.00;99.90;;;-141.84;31.20;21891.47;5074336;28;20229;-62
2022/06/18 10:38:18;;;;;;;6.30;2.60;;;30.10;99.90;;;-141.84;31.60;21954.50;5072909;28;20223;-62
2022/06/18 10:41:05;;;;;;;4.47;2.40;;;30.20;99.90;;;-141.84;31.20;21924.00;5053977;28;20316;-62